createdAt,value
2023-04-16T00:03:03.133Z,101213.69
2023-04-16T00:07:04.605Z,101204.63
2023-04-16T00:11:06.062Z,101208.34
2023-04-16T00:15:07.889Z,101208.81
2023-04-16T00:19:09.795Z,101215.94
2023-04-16T00:23:11.398Z,101203.28
2023-04-16T00:27:12.756Z,101210.75
2023-04-16T00:31:14.187Z,101213.16
2023-04-16T00:35:15.753Z,101209.75
2023-04-16T00:39:17.188Z,101210.66
2023-04-16T00:43:26.758Z,101216.81
2023-04-16T00:47:28.803Z,101216.41
2023-04-16T00:51:31.793Z,101219.81
2023-04-16T00:55:33.147Z,101218.25
2023-04-16T00:59:34.450Z,101217.56
2023-04-16T01:03:44.443Z,101219.28
2023-04-16T01:07:45.840Z,101221.78
2023-04-16T01:11:47.128Z,101220.44
2023-04-16T01:15:48.481Z,101220.44
2023-04-16T01:19:49.753Z,101218.19
2023-04-16T01:23:51.326Z,101217.84
2023-04-16T01:27:57.316Z,101225.88
2023-04-16T01:31:58.708Z,101227.19
2023-04-16T01:36:00.007Z,101232.81
2023-04-16T01:40:01.348Z,101232.91
2023-04-16T01:44:02.744Z,101225.81
2023-04-16T01:48:04.366Z,101245.13
2023-04-16T01:52:05.768Z,101241.25
2023-04-16T01:56:07.287Z,101237.38
2023-04-16T02:00:09.059Z,101238.63
2023-04-16T02:04:11.954Z,101235.25
2023-04-16T02:08:13.320Z,101242.09
2023-04-16T02:12:14.832Z,101235.97
2023-04-16T02:16:16.214Z,101248.06
2023-04-16T02:20:18.066Z,101244.63
2023-04-16T02:24:19.998Z,101240.41
2023-04-16T02:28:21.472Z,101234.94
2023-04-16T02:32:22.899Z,101235.78
2023-04-16T02:36:24.315Z,101238.66
2023-04-16T02:40:26.357Z,101231.66
2023-04-16T02:44:27.754Z,101228.25
2023-04-16T02:48:29.071Z,101226.25
2023-04-16T02:52:32.176Z,101236.19
2023-04-16T02:56:33.464Z,101235.84
2023-04-16T03:00:34.784Z,101232.97
2023-04-16T03:04:36.195Z,101235.47
2023-04-16T03:08:37.628Z,101232.38
2023-04-16T03:12:39.197Z,101244.88
2023-04-16T03:16:40.533Z,101238.75
2023-04-16T03:20:41.938Z,101238.84
2023-04-16T03:24:43.424Z,101233.34
2023-04-16T03:28:44.691Z,101237.88
2023-04-16T03:32:46.065Z,101242.38
2023-04-16T03:36:47.392Z,101237.53
2023-04-16T03:40:48.683Z,101242.31
2023-04-16T03:44:50.038Z,101249.75
2023-04-16T03:48:51.350Z,101251.09
2023-04-16T03:52:52.788Z,101253.28
2023-04-16T03:56:54.098Z,101250.25
2023-04-16T04:00:55.550Z,101249.19
2023-04-16T04:04:56.866Z,101258.94
2023-04-16T04:08:58.915Z,101255.91
2023-04-16T04:13:01.131Z,101259.53
2023-04-16T04:17:02.497Z,101266.03
2023-04-16T04:21:08.060Z,101262.16
2023-04-16T04:25:12.336Z,101267.91
2023-04-16T04:29:14.008Z,101276.50
2023-04-16T04:33:15.419Z,101279.47
2023-04-16T04:37:16.740Z,101271.63
2023-04-16T04:41:18.641Z,101279.75
2023-04-16T04:45:19.980Z,101281.66
2023-04-16T04:49:21.281Z,101276.53
2023-04-16T04:53:22.636Z,101286.44
2023-04-16T04:57:23.985Z,101285.75
2023-04-16T05:01:25.594Z,101289.03
2023-04-16T05:05:27.041Z,101294.63
2023-04-16T05:09:28.359Z,101296.09
2023-04-16T05:13:29.739Z,101301.41
2023-04-16T05:17:31.433Z,101304.22
2023-04-16T05:21:33.896Z,101303.16
2023-04-16T05:25:36.862Z,101311.97
2023-04-16T05:29:38.209Z,101315.16
2023-04-16T05:33:39.509Z,101312.38
2023-04-16T05:37:40.993Z,101316.34
2023-04-16T05:41:42.337Z,101318.53
2023-04-16T05:45:43.793Z,101314.28
2023-04-16T05:49:45.163Z,101311.00
2023-04-16T05:53:46.490Z,101321.22
2023-04-16T05:57:47.808Z,101322.31
2023-04-16T06:01:49.261Z,101322.06
2023-04-16T06:05:50.763Z,101325.25
2023-04-16T06:09:52.069Z,101325.75
2023-04-16T06:13:53.564Z,101330.00
2023-04-16T06:17:55.943Z,101338.22
2023-04-16T06:21:57.871Z,101345.25
2023-04-16T06:25:59.297Z,101354.19
2023-04-16T06:30:00.894Z,101346.94
2023-04-16T06:34:02.239Z,101360.06
2023-04-16T06:38:03.532Z,101362.28
2023-04-16T06:42:04.959Z,101366.63
2023-04-16T06:46:06.251Z,101369.34
2023-04-16T06:50:07.907Z,101364.69
2023-04-16T06:54:09.269Z,101370.97
2023-04-16T06:58:10.587Z,101370.91
2023-04-16T07:02:12.152Z,101374.72
2023-04-16T07:06:13.905Z,101383.97
2023-04-16T07:10:15.706Z,101370.44
2023-04-16T07:14:17.250Z,101380.34
2023-04-16T07:18:20.305Z,101386.88
2023-04-16T07:22:22.151Z,101380.13
2023-04-16T07:26:23.603Z,101378.41
2023-04-16T07:30:25.039Z,101374.28
2023-04-16T07:34:26.519Z,101382.78
2023-04-16T07:38:27.836Z,101383.41
2023-04-16T07:42:29.182Z,101383.81
2023-04-16T07:46:39.358Z,101390.97
2023-04-16T07:50:44.893Z,101395.38
2023-04-16T07:54:46.316Z,101393.19
2023-04-16T07:58:47.726Z,101397.19
2023-04-16T08:02:49.266Z,101395.59
2023-04-16T08:06:51.789Z,101387.66
2023-04-16T08:10:55.885Z,101404.09
2023-04-16T08:14:57.312Z,101405.22
2023-04-16T08:19:00.915Z,101415.97
2023-04-16T08:23:02.273Z,101421.63
2023-04-16T08:27:15.542Z,101423.25
2023-04-16T08:31:20.730Z,101425.34
2023-04-16T08:35:22.158Z,101429.09
2023-04-16T08:39:23.528Z,101433.28
2023-04-16T08:43:25.589Z,101427.75
2023-04-16T08:47:29.663Z,101443.13
2023-04-16T08:51:35.121Z,101444.53
2023-04-16T08:55:39.291Z,101445.63
2023-04-16T08:59:45.860Z,101448.00
2023-04-16T09:03:48.674Z,101453.38
2023-04-16T09:07:50.669Z,101450.09
2023-04-16T09:11:56.165Z,101447.31
2023-04-16T09:15:58.147Z,101445.66
2023-04-16T09:19:59.581Z,101443.03
2023-04-16T09:24:01.795Z,101442.72
2023-04-16T09:28:03.218Z,101453.34
2023-04-16T09:32:06.623Z,101455.16
2023-04-16T09:36:08.718Z,101463.03
2023-04-16T09:40:10.767Z,101461.19
2023-04-16T09:44:12.095Z,101470.75
2023-04-16T09:48:13.349Z,101478.34
2023-04-16T09:52:22.861Z,101475.72
2023-04-16T09:56:26.011Z,101478.97
2023-04-16T10:00:29.456Z,101473.84
2023-04-16T10:04:30.985Z,101482.16
2023-04-16T10:08:34.966Z,101480.78
2023-04-16T10:12:36.522Z,101472.63
2023-04-16T10:16:40.750Z,101486.66
2023-04-16T10:20:43.536Z,101484.09
2023-04-16T10:24:46.752Z,101482.63
2023-04-16T10:28:48.373Z,101480.06
2023-04-16T10:32:50.399Z,101490.47
2023-04-16T10:36:53.998Z,101492.69
2023-04-16T10:40:59.636Z,101484.94
2023-04-16T10:45:01.148Z,101491.84
2023-04-16T10:49:12.512Z,101485.56
2023-04-16T10:53:25.323Z,101481.63
2023-04-16T10:57:29.365Z,101484.81
2023-04-16T11:01:32.245Z,101486.13
2023-04-16T11:05:46.979Z,101483.97
2023-04-16T11:10:15.301Z,101479.75
2023-04-16T11:14:16.831Z,101486.97
2023-04-16T11:18:21.039Z,101487.44
2023-04-16T11:22:22.728Z,101485.38
2023-04-16T11:26:29.133Z,101481.50
2023-04-16T11:30:48.891Z,101486.22
2023-04-16T11:34:50.510Z,101489.41
2023-04-16T11:39:01.514Z,101478.22
2023-04-16T11:43:04.938Z,101478.19
2023-04-16T11:47:07.700Z,101490.97
2023-04-16T11:51:09.286Z,101493.19
2023-04-16T11:55:10.952Z,101496.78
2023-04-16T11:59:20.463Z,101487.41
2023-04-16T12:03:38.759Z,101487.00
2023-04-16T12:07:45.836Z,101493.88
2023-04-16T12:11:47.146Z,101492.88
2023-04-16T12:15:53.467Z,101495.13
2023-04-16T12:20:00.451Z,101493.69
2023-04-16T12:24:01.868Z,101495.81
2023-04-16T12:28:03.502Z,101494.66
2023-04-16T12:32:04.799Z,101499.97
2023-04-16T12:36:20.128Z,101500.25
2023-04-16T12:40:21.500Z,101504.09
2023-04-16T12:44:22.958Z,101491.09
2023-04-16T12:48:24.277Z,101510.56
2023-04-16T12:52:25.979Z,101484.34
2023-04-16T12:56:27.692Z,101490.69
2023-04-16T13:00:29.082Z,101488.69
2023-04-16T13:04:30.506Z,101482.94
2023-04-16T13:08:31.991Z,101489.59
2023-04-16T13:12:33.674Z,101488.91
2023-04-16T13:16:35.068Z,101481.84
2023-04-16T13:20:36.549Z,101482.09
2023-04-16T13:24:38.890Z,101492.69
2023-04-16T13:28:40.365Z,101483.13
2023-04-16T13:32:41.822Z,101485.03
2023-04-16T13:36:43.284Z,101491.44
2023-04-16T13:40:44.720Z,101482.59
2023-04-16T13:44:48.771Z,101484.72
2023-04-16T13:48:50.154Z,101482.91
2023-04-16T13:52:51.516Z,101486.22
2023-04-16T13:56:52.902Z,101482.94
2023-04-16T14:00:54.236Z,101468.78
2023-04-16T14:04:55.669Z,101478.22
2023-04-16T14:08:56.943Z,101488.91
2023-04-16T14:12:58.478Z,101484.59
2023-04-16T14:16:59.835Z,101490.50
2023-04-16T14:21:02.095Z,101480.91
2023-04-16T14:25:03.746Z,101494.50
2023-04-16T14:29:06.199Z,101485.72
2023-04-16T14:33:07.623Z,101493.13
2023-04-16T14:37:09.179Z,101492.31
2023-04-16T14:41:12.353Z,101484.72
2023-04-16T14:45:13.784Z,101486.03
2023-04-16T14:49:15.362Z,101486.47
2023-04-16T14:53:16.831Z,101479.56
2023-04-16T14:57:18.248Z,101480.84
2023-04-16T15:01:19.655Z,101475.81
2023-04-16T15:05:21.403Z,101467.50
2023-04-16T15:09:22.761Z,101479.22
2023-04-16T15:13:24.217Z,101475.25
2023-04-16T15:17:26.384Z,101476.06
2023-04-16T15:21:27.954Z,101467.59
2023-04-16T15:25:29.350Z,101471.44
2023-04-16T15:29:30.638Z,101469.09
2023-04-16T15:33:32.015Z,101469.78
2023-04-16T15:37:36.495Z,101466.47
2023-04-16T15:41:53.376Z,101473.97
2023-04-16T15:46:00.774Z,101466.63
2023-04-16T15:50:02.274Z,101461.38
2023-04-16T15:54:03.797Z,101471.78
2023-04-16T15:58:05.556Z,101484.19
2023-04-16T16:02:07.568Z,101469.25
2023-04-16T16:06:09.541Z,101479.22
2023-04-16T16:10:11.581Z,101471.72
2023-04-16T16:14:14.880Z,101474.22
2023-04-16T16:18:17.194Z,101469.88
2023-04-16T16:22:20.622Z,101471.31
2023-04-16T16:26:22.944Z,101472.66
2023-04-16T16:30:25.121Z,101478.44
2023-04-16T16:34:26.588Z,101470.00
2023-04-16T16:38:27.968Z,101465.47
2023-04-16T16:42:29.559Z,101474.91
2023-04-16T16:46:31.178Z,101468.66
2023-04-16T16:50:32.673Z,101480.25
2023-04-16T16:54:34.051Z,101483.19
2023-04-16T16:58:35.562Z,101480.34
2023-04-16T17:02:38.094Z,101477.69
2023-04-16T17:06:39.563Z,101486.41
2023-04-16T17:10:41.212Z,101490.03
2023-04-16T17:14:42.537Z,101486.22
2023-04-16T17:18:44.028Z,101489.75
2023-04-16T17:22:45.574Z,101499.13
2023-04-16T17:26:47.073Z,101504.09
2023-04-16T17:30:52.545Z,101510.78
2023-04-16T17:34:55.869Z,101508.28
2023-04-16T17:38:57.709Z,101515.88
2023-04-16T17:42:59.072Z,101515.28
2023-04-16T17:47:00.435Z,101520.09
2023-04-16T17:51:09.146Z,101524.72
2023-04-16T17:55:11.301Z,101527.28
2023-04-16T17:59:12.642Z,101520.38
2023-04-16T18:03:14.747Z,101531.88
2023-04-16T18:07:16.223Z,101533.97
2023-04-16T18:11:17.562Z,101540.41
2023-04-16T18:15:19.057Z,101531.56
2023-04-16T18:19:20.839Z,101533.56
2023-04-16T18:23:22.280Z,101541.00
2023-04-16T18:27:23.759Z,101553.59
2023-04-16T18:31:25.168Z,101553.16
2023-04-16T18:35:26.530Z,101555.28
2023-04-16T18:39:27.881Z,101559.31
2023-04-16T18:43:29.285Z,101564.94
2023-04-16T18:47:31.056Z,101568.97
2023-04-16T18:51:32.637Z,101576.00
2023-04-16T18:55:33.950Z,101574.72
2023-04-16T18:59:35.311Z,101574.72
2023-04-16T19:03:36.950Z,101580.59
2023-04-16T19:07:38.572Z,101574.88
2023-04-16T19:11:40.417Z,101583.00
2023-04-16T19:15:41.865Z,101579.63
2023-04-16T19:19:43.169Z,101591.25
2023-04-16T19:23:44.511Z,101584.09
2023-04-16T19:27:45.921Z,101583.81
2023-04-16T19:31:47.411Z,101588.44
2023-04-16T19:35:48.924Z,101589.72
2023-04-16T19:39:50.330Z,101594.75
2023-04-16T19:43:53.962Z,101596.72
2023-04-16T19:47:56.201Z,101596.00
2023-04-16T19:51:57.804Z,101604.38
2023-04-16T19:55:59.105Z,101597.13
2023-04-16T20:00:00.816Z,101598.09
2023-04-16T20:04:02.254Z,101600.63
2023-04-16T20:08:03.850Z,101603.44
2023-04-16T20:12:05.472Z,101598.63
2023-04-16T20:16:08.327Z,101599.53
2023-04-16T20:20:10.956Z,101608.59
2023-04-16T20:24:12.408Z,101610.34
2023-04-16T20:28:16.197Z,101615.03
2023-04-16T20:32:17.613Z,101617.19
2023-04-16T20:36:18.897Z,101601.47
2023-04-16T20:40:21.143Z,101609.00
2023-04-16T20:44:40.087Z,101605.81
2023-04-16T20:48:41.974Z,101608.50
2023-04-16T20:52:43.372Z,101610.16
2023-04-16T20:56:45.164Z,101602.81
2023-04-16T21:00:50.931Z,101607.09
2023-04-16T21:04:52.520Z,101604.38
2023-04-16T21:08:53.962Z,101605.88
2023-04-16T21:12:55.621Z,101595.19
2023-04-16T21:16:57.068Z,101604.69
2023-04-16T21:20:58.949Z,101603.75
2023-04-16T21:25:04.531Z,101597.75
2023-04-16T21:29:05.867Z,101606.66
2023-04-16T21:33:07.358Z,101605.03
2023-04-16T21:37:10.434Z,101602.03
2023-04-16T21:41:11.852Z,101609.44
2023-04-16T21:45:14.571Z,101600.63
2023-04-16T21:49:16.022Z,101604.63
2023-04-16T21:53:17.358Z,101599.53
2023-04-16T21:57:18.669Z,101601.75
2023-04-16T22:01:20.378Z,101606.84
2023-04-16T22:05:23.197Z,101607.34
2023-04-16T22:09:27.332Z,101612.03
2023-04-16T22:13:32.432Z,101614.94
2023-04-16T22:17:34.705Z,101604.63
2023-04-16T22:21:36.303Z,101598.19
2023-04-16T22:25:37.717Z,101606.97
2023-04-16T22:29:39.132Z,101606.31
2023-04-16T22:33:40.483Z,101606.44
2023-04-16T22:37:41.930Z,101611.19
2023-04-16T22:41:43.307Z,101611.44
2023-04-16T22:45:46.153Z,101611.50
2023-04-16T22:49:47.694Z,101605.72
2023-04-16T22:53:49.007Z,101600.91
2023-04-16T22:57:50.356Z,101608.53
2023-04-16T23:01:51.956Z,101605.69
2023-04-16T23:05:53.436Z,101597.34
2023-04-16T23:09:54.730Z,101595.53
2023-04-16T23:13:56.195Z,101599.84
2023-04-16T23:17:58.027Z,101606.88
2023-04-16T23:21:59.392Z,101609.81
2023-04-16T23:26:02.441Z,101601.00
2023-04-16T23:30:04.537Z,101600.25
2023-04-16T23:34:05.958Z,101600.31
2023-04-16T23:38:07.385Z,101610.84
2023-04-16T23:42:08.699Z,101603.59
2023-04-16T23:46:10.163Z,101597.50
2023-04-16T23:50:11.603Z,101595.38
2023-04-16T23:54:12.887Z,101598.75
2023-04-16T23:58:14.316Z,101598.28
